sensor_id;sensor_type;location;lat;lon;timestamp;P1;durP1;ratioP1;P2;durP2;ratioP2
60665;SDS011;59128;44.642;21.188;2023-04-24T00:00:28;24.42;;;15.85;;
60665;SDS011;59128;44.642;21.188;2023-04-24T00:02:56;18.95;;;14.10;;
60665;SDS011;59128;44.642;21.188;2023-04-24T00:05:22;23.33;;;17.15;;
60665;SDS011;59128;44.642;21.188;2023-04-24T00:07:48;15.55;;;11.68;;
60665;SDS011;59128;44.642;21.188;2023-04-24T00:10:17;28.25;;;20.30;;
60665;SDS011;59128;44.642;21.188;2023-04-24T00:12:44;18.13;;;13.48;;
60665;SDS011;59128;44.642;21.188;2023-04-24T00:15:10;17.77;;;14.20;;
60665;SDS011;59128;44.642;21.188;2023-04-24T00:17:36;17.83;;;13.38;;
60665;SDS011;59128;44.642;21.188;2023-04-24T00:20:03;17.77;;;12.30;;
60665;SDS011;59128;44.642;21.188;2023-04-24T00:22:29;11.20;;;7.90;;
60665;SDS011;59128;44.642;21.188;2023-04-24T00:24:56;17.75;;;12.38;;
60665;SDS011;59128;44.642;21.188;2023-04-24T00:27:22;19.63;;;14.65;;
60665;SDS011;59128;44.642;21.188;2023-04-24T00:29:48;13.77;;;9.38;;
60665;SDS011;59128;44.642;21.188;2023-04-24T00:32:15;14.15;;;10.23;;
60665;SDS011;59128;44.642;21.188;2023-04-24T00:34:41;11.40;;;7.95;;
60665;SDS011;59128;44.642;21.188;2023-04-24T00:37:07;9.02;;;5.90;;
60665;SDS011;59128;44.642;21.188;2023-04-24T00:39:33;9.98;;;7.20;;
60665;SDS011;59128;44.642;21.188;2023-04-24T00:41:59;9.25;;;6.55;;
60665;SDS011;59128;44.642;21.188;2023-04-24T00:44:26;9.13;;;6.80;;
60665;SDS011;59128;44.642;21.188;2023-04-24T00:46:53;13.48;;;10.15;;
60665;SDS011;59128;44.642;21.188;2023-04-24T00:49:23;20.08;;;14.90;;
60665;SDS011;59128;44.642;21.188;2023-04-24T00:51:49;15.80;;;11.15;;
60665;SDS011;59128;44.642;21.188;2023-04-24T00:54:16;12.13;;;8.40;;
60665;SDS011;59128;44.642;21.188;2023-04-24T00:56:44;11.20;;;9.27;;
60665;SDS011;59128;44.642;21.188;2023-04-24T00:59:11;6.70;;;5.10;;
60665;SDS011;59128;44.642;21.188;2023-04-24T01:01:38;14.52;;;10.23;;
60665;SDS011;59128;44.642;21.188;2023-04-24T01:04:07;7.53;;;6.20;;
60665;SDS011;59128;44.642;21.188;2023-04-24T01:06:34;12.60;;;9.70;;
60665;SDS011;59128;44.642;21.188;2023-04-24T01:09:01;10.73;;;7.35;;
60665;SDS011;59128;44.642;21.188;2023-04-24T01:11:27;12.70;;;9.70;;
60665;SDS011;59128;44.642;21.188;2023-04-24T01:13:54;10.45;;;9.38;;
60665;SDS011;59128;44.642;21.188;2023-04-24T01:16:20;6.35;;;5.50;;
60665;SDS011;59128;44.642;21.188;2023-04-24T01:18:47;5.47;;;4.57;;
60665;SDS011;59128;44.642;21.188;2023-04-24T01:21:13;5.95;;;5.18;;
60665;SDS011;59128;44.642;21.188;2023-04-24T01:23:41;6.75;;;5.32;;
60665;SDS011;59128;44.642;21.188;2023-04-24T01:26:07;6.03;;;5.22;;
60665;SDS011;59128;44.642;21.188;2023-04-24T01:28:33;7.03;;;5.20;;
60665;SDS011;59128;44.642;21.188;2023-04-24T01:30:59;6.77;;;5.50;;
60665;SDS011;59128;44.642;21.188;2023-04-24T01:33:25;6.28;;;4.80;;
60665;SDS011;59128;44.642;21.188;2023-04-24T01:35:52;6.43;;;4.93;;
60665;SDS011;59128;44.642;21.188;2023-04-24T01:38:18;8.27;;;5.17;;
60665;SDS011;59128;44.642;21.188;2023-04-24T01:40:44;7.30;;;5.30;;
60665;SDS011;59128;44.642;21.188;2023-04-24T01:43:11;7.53;;;5.20;;
60665;SDS011;59128;44.642;21.188;2023-04-24T01:45:37;7.65;;;5.20;;
60665;SDS011;59128;44.642;21.188;2023-04-24T01:48:03;6.57;;;5.38;;
60665;SDS011;59128;44.642;21.188;2023-04-24T01:50:29;5.85;;;4.85;;
60665;SDS011;59128;44.642;21.188;2023-04-24T01:52:55;7.05;;;5.20;;
60665;SDS011;59128;44.642;21.188;2023-04-24T01:55:21;5.70;;;5.10;;
60665;SDS011;59128;44.642;21.188;2023-04-24T01:57:47;7.23;;;5.37;;
60665;SDS011;59128;44.642;21.188;2023-04-24T02:00:14;5.50;;;4.80;;
60665;SDS011;59128;44.642;21.188;2023-04-24T02:02:40;6.57;;;5.35;;
60665;SDS011;59128;44.642;21.188;2023-04-24T02:05:07;5.30;;;4.70;;
60665;SDS011;59128;44.642;21.188;2023-04-24T02:07:33;8.25;;;4.90;;
60665;SDS011;59128;44.642;21.188;2023-04-24T02:09:59;5.85;;;4.70;;
60665;SDS011;59128;44.642;21.188;2023-04-24T02:12:25;6.55;;;4.93;;
60665;SDS011;59128;44.642;21.188;2023-04-24T02:14:51;7.80;;;5.45;;
60665;SDS011;59128;44.642;21.188;2023-04-24T02:17:17;7.25;;;4.93;;
60665;SDS011;59128;44.642;21.188;2023-04-24T02:19:44;4.97;;;4.47;;
60665;SDS011;59128;44.642;21.188;2023-04-24T02:22:11;7.40;;;4.80;;
60665;SDS011;59128;44.642;21.188;2023-04-24T02:24:37;5.45;;;4.43;;
60665;SDS011;59128;44.642;21.188;2023-04-24T02:27:03;6.00;;;4.68;;
60665;SDS011;59128;44.642;21.188;2023-04-24T02:29:29;5.88;;;5.18;;
60665;SDS011;59128;44.642;21.188;2023-04-24T02:31:56;6.53;;;5.30;;
60665;SDS011;59128;44.642;21.188;2023-04-24T02:34:22;6.40;;;4.67;;
60665;SDS011;59128;44.642;21.188;2023-04-24T02:36:48;5.85;;;4.50;;
60665;SDS011;59128;44.642;21.188;2023-04-24T02:39:14;6.38;;;4.82;;
60665;SDS011;59128;44.642;21.188;2023-04-24T02:41:42;5.53;;;4.70;;
60665;SDS011;59128;44.642;21.188;2023-04-24T02:44:08;5.95;;;4.60;;
60665;SDS011;59128;44.642;21.188;2023-04-24T02:46:34;5.15;;;4.63;;
60665;SDS011;59128;44.642;21.188;2023-04-24T02:49:00;6.35;;;4.78;;
60665;SDS011;59128;44.642;21.188;2023-04-24T02:51:27;5.20;;;4.22;;
60665;SDS011;59128;44.642;21.188;2023-04-24T02:53:53;5.93;;;4.40;;
60665;SDS011;59128;44.642;21.188;2023-04-24T02:56:19;5.22;;;4.30;;
60665;SDS011;59128;44.642;21.188;2023-04-24T02:58:45;5.00;;;4.50;;
60665;SDS011;59128;44.642;21.188;2023-04-24T03:01:11;4.75;;;4.20;;
60665;SDS011;59128;44.642;21.188;2023-04-24T03:03:38;5.07;;;4.57;;
60665;SDS011;59128;44.642;21.188;2023-04-24T03:06:04;9.70;;;6.83;;
60665;SDS011;59128;44.642;21.188;2023-04-24T03:08:31;13.18;;;8.48;;
60665;SDS011;59128;44.642;21.188;2023-04-24T03:10:57;10.80;;;8.35;;
60665;SDS011;59128;44.642;21.188;2023-04-24T03:13:23;6.88;;;4.90;;
60665;SDS011;59128;44.642;21.188;2023-04-24T03:15:49;6.25;;;4.60;;
60665;SDS011;59128;44.642;21.188;2023-04-24T03:18:15;5.15;;;4.53;;
60665;SDS011;59128;44.642;21.188;2023-04-24T03:20:42;6.10;;;4.40;;
60665;SDS011;59128;44.642;21.188;2023-04-24T03:23:08;6.57;;;4.40;;
60665;SDS011;59128;44.642;21.188;2023-04-24T03:25:34;8.17;;;5.03;;
60665;SDS011;59128;44.642;21.188;2023-04-24T03:28:00;5.97;;;5.32;;
60665;SDS011;59128;44.642;21.188;2023-04-24T03:30:26;5.75;;;5.10;;
60665;SDS011;59128;44.642;21.188;2023-04-24T03:32:52;7.28;;;5.00;;
60665;SDS011;59128;44.642;21.188;2023-04-24T03:35:18;9.48;;;5.65;;
60665;SDS011;59128;44.642;21.188;2023-04-24T03:37:44;7.38;;;5.28;;
60665;SDS011;59128;44.642;21.188;2023-04-24T03:40:10;6.07;;;5.30;;
60665;SDS011;59128;44.642;21.188;2023-04-24T03:42:36;7.25;;;5.93;;
60665;SDS011;59128;44.642;21.188;2023-04-24T03:45:02;6.80;;;6.10;;
60665;SDS011;59128;44.642;21.188;2023-04-24T03:47:29;7.38;;;5.65;;
60665;SDS011;59128;44.642;21.188;2023-04-24T03:49:55;6.40;;;5.80;;
60665;SDS011;59128;44.642;21.188;2023-04-24T03:52:21;7.27;;;5.90;;
60665;SDS011;59128;44.642;21.188;2023-04-24T03:54:47;7.60;;;6.07;;
60665;SDS011;59128;44.642;21.188;2023-04-24T03:57:13;7.78;;;6.30;;
60665;SDS011;59128;44.642;21.188;2023-04-24T03:59:39;6.80;;;6.07;;
60665;SDS011;59128;44.642;21.188;2023-04-24T04:02:05;7.97;;;6.50;;
60665;SDS011;59128;44.642;21.188;2023-04-24T04:04:31;9.75;;;7.60;;
60665;SDS011;59128;44.642;21.188;2023-04-24T04:06:57;9.17;;;7.07;;
60665;SDS011;59128;44.642;21.188;2023-04-24T04:09:26;10.73;;;7.90;;
60665;SDS011;59128;44.642;21.188;2023-04-24T04:11:52;8.00;;;7.05;;
60665;SDS011;59128;44.642;21.188;2023-04-24T04:14:18;9.43;;;6.50;;
60665;SDS011;59128;44.642;21.188;2023-04-24T04:16:44;8.00;;;7.13;;
60665;SDS011;59128;44.642;21.188;2023-04-24T04:19:10;9.17;;;7.30;;
60665;SDS011;59128;44.642;21.188;2023-04-24T04:21:36;8.82;;;7.75;;
60665;SDS011;59128;44.642;21.188;2023-04-24T04:24:02;7.30;;;6.60;;
60665;SDS011;59128;44.642;21.188;2023-04-24T04:26:30;8.38;;;7.53;;
60665;SDS011;59128;44.642;21.188;2023-04-24T04:28:58;8.55;;;6.53;;
60665;SDS011;59128;44.642;21.188;2023-04-24T04:31:25;9.80;;;7.18;;
60665;SDS011;59128;44.642;21.188;2023-04-24T04:33:51;10.57;;;8.27;;
60665;SDS011;59128;44.642;21.188;2023-04-24T04:36:17;10.75;;;8.75;;
60665;SDS011;59128;44.642;21.188;2023-04-24T04:38:43;9.82;;;7.22;;
60665;SDS011;59128;44.642;21.188;2023-04-24T04:41:09;8.90;;;6.55;;
60665;SDS011;59128;44.642;21.188;2023-04-24T04:43:36;8.02;;;6.55;;
60665;SDS011;59128;44.642;21.188;2023-04-24T04:46:04;10.48;;;6.50;;
60665;SDS011;59128;44.642;21.188;2023-04-24T04:48:31;9.00;;;6.55;;
60665;SDS011;59128;44.642;21.188;2023-04-24T04:50:57;7.75;;;6.30;;
60665;SDS011;59128;44.642;21.188;2023-04-24T04:53:23;7.10;;;6.10;;
60665;SDS011;59128;44.642;21.188;2023-04-24T04:55:49;9.68;;;7.25;;
60665;SDS011;59128;44.642;21.188;2023-04-24T04:58:15;10.45;;;7.72;;
60665;SDS011;59128;44.642;21.188;2023-04-24T05:00:41;10.02;;;7.53;;
60665;SDS011;59128;44.642;21.188;2023-04-24T05:03:07;8.98;;;6.93;;
60665;SDS011;59128;44.642;21.188;2023-04-24T05:05:33;10.20;;;6.30;;
60665;SDS011;59128;44.642;21.188;2023-04-24T05:07:59;8.02;;;5.53;;
60665;SDS011;59128;44.642;21.188;2023-04-24T05:10:25;8.45;;;6.03;;
60665;SDS011;59128;44.642;21.188;2023-04-24T05:12:51;8.48;;;6.10;;
60665;SDS011;59128;44.642;21.188;2023-04-24T05:15:17;6.82;;;5.95;;
60665;SDS011;59128;44.642;21.188;2023-04-24T05:17:44;8.47;;;6.37;;
60665;SDS011;59128;44.642;21.188;2023-04-24T05:20:10;6.15;;;5.10;;
60665;SDS011;59128;44.642;21.188;2023-04-24T05:22:36;7.73;;;5.80;;
60665;SDS011;59128;44.642;21.188;2023-04-24T05:25:02;6.82;;;5.70;;
60665;SDS011;59128;44.642;21.188;2023-04-24T05:27:28;6.00;;;5.40;;
60665;SDS011;59128;44.642;21.188;2023-04-24T05:29:54;7.03;;;6.32;;
60665;SDS011;59128;44.642;21.188;2023-04-24T05:32:21;10.67;;;7.00;;
60665;SDS011;59128;44.642;21.188;2023-04-24T05:34:47;7.72;;;6.93;;
60665;SDS011;59128;44.642;21.188;2023-04-24T05:37:13;7.18;;;6.47;;
60665;SDS011;59128;44.642;21.188;2023-04-24T05:39:39;6.97;;;5.68;;
60665;SDS011;59128;44.642;21.188;2023-04-24T05:42:06;6.55;;;5.93;;
60665;SDS011;59128;44.642;21.188;2023-04-24T05:44:32;7.43;;;6.55;;
60665;SDS011;59128;44.642;21.188;2023-04-24T05:46:58;9.27;;;7.17;;
60665;SDS011;59128;44.642;21.188;2023-04-24T05:49:25;6.47;;;5.87;;
60665;SDS011;59128;44.642;21.188;2023-04-24T05:51:51;13.38;;;9.85;;
60665;SDS011;59128;44.642;21.188;2023-04-24T05:54:17;8.70;;;7.80;;
60665;SDS011;59128;44.642;21.188;2023-04-24T05:56:43;17.63;;;12.45;;
60665;SDS011;59128;44.642;21.188;2023-04-24T05:59:10;9.50;;;7.67;;
60665;SDS011;59128;44.642;21.188;2023-04-24T06:01:36;6.93;;;6.22;;
60665;SDS011;59128;44.642;21.188;2023-04-24T06:04:02;10.55;;;9.30;;
60665;SDS011;59128;44.642;21.188;2023-04-24T06:06:28;9.05;;;7.78;;
60665;SDS011;59128;44.642;21.188;2023-04-24T06:08:55;11.43;;;9.70;;
60665;SDS011;59128;44.642;21.188;2023-04-24T06:11:22;12.20;;;10.07;;
60665;SDS011;59128;44.642;21.188;2023-04-24T06:13:48;14.18;;;10.65;;
60665;SDS011;59128;44.642;21.188;2023-04-24T06:16:14;8.10;;;7.30;;
60665;SDS011;59128;44.642;21.188;2023-04-24T06:18:40;12.00;;;10.00;;
60665;SDS011;59128;44.642;21.188;2023-04-24T06:21:06;8.65;;;7.18;;
60665;SDS011;59128;44.642;21.188;2023-04-24T06:23:32;8.20;;;6.77;;
60665;SDS011;59128;44.642;21.188;2023-04-24T06:25:58;8.45;;;6.90;;
60665;SDS011;59128;44.642;21.188;2023-04-24T06:28:25;6.00;;;5.27;;
60665;SDS011;59128;44.642;21.188;2023-04-24T06:30:51;20.23;;;17.65;;
60665;SDS011;59128;44.642;21.188;2023-04-24T06:33:17;9.10;;;7.55;;
60665;SDS011;59128;44.642;21.188;2023-04-24T06:35:43;7.82;;;6.10;;
60665;SDS011;59128;44.642;21.188;2023-04-24T06:38:09;7.97;;;6.80;;
60665;SDS011;59128;44.642;21.188;2023-04-24T06:40:35;22.25;;;19.50;;
60665;SDS011;59128;44.642;21.188;2023-04-24T06:43:01;19.13;;;15.85;;
60665;SDS011;59128;44.642;21.188;2023-04-24T06:45:28;28.08;;;24.25;;
60665;SDS011;59128;44.642;21.188;2023-04-24T06:47:54;10.23;;;8.13;;
60665;SDS011;59128;44.642;21.188;2023-04-24T06:50:21;10.25;;;7.93;;
60665;SDS011;59128;44.642;21.188;2023-04-24T06:52:47;10.27;;;8.25;;
60665;SDS011;59128;44.642;21.188;2023-04-24T06:55:13;11.43;;;8.68;;
60665;SDS011;59128;44.642;21.188;2023-04-24T06:57:41;12.93;;;9.27;;
60665;SDS011;59128;44.642;21.188;2023-04-24T07:00:09;9.83;;;8.23;;
60665;SDS011;59128;44.642;21.188;2023-04-24T07:02:35;9.35;;;8.25;;
60665;SDS011;59128;44.642;21.188;2023-04-24T07:05:02;10.82;;;9.52;;
60665;SDS011;59128;44.642;21.188;2023-04-24T07:07:28;11.48;;;9.45;;
60665;SDS011;59128;44.642;21.188;2023-04-24T07:09:54;9.90;;;8.57;;
60665;SDS011;59128;44.642;21.188;2023-04-24T07:12:21;10.20;;;9.15;;
60665;SDS011;59128;44.642;21.188;2023-04-24T07:14:47;10.10;;;9.07;;
60665;SDS011;59128;44.642;21.188;2023-04-24T07:17:13;12.40;;;11.10;;
60665;SDS011;59128;44.642;21.188;2023-04-24T07:19:39;12.48;;;10.52;;
60665;SDS011;59128;44.642;21.188;2023-04-24T07:22:06;11.93;;;10.73;;
60665;SDS011;59128;44.642;21.188;2023-04-24T07:24:32;11.43;;;9.98;;
60665;SDS011;59128;44.642;21.188;2023-04-24T07:26:58;14.77;;;12.55;;
60665;SDS011;59128;44.642;21.188;2023-04-24T07:29:26;12.35;;;10.45;;
60665;SDS011;59128;44.642;21.188;2023-04-24T07:31:52;15.82;;;13.90;;
60665;SDS011;59128;44.642;21.188;2023-04-24T07:34:19;9.00;;;8.10;;
60665;SDS011;59128;44.642;21.188;2023-04-24T07:36:45;12.70;;;10.50;;
60665;SDS011;59128;44.642;21.188;2023-04-24T07:39:12;11.20;;;8.63;;
60665;SDS011;59128;44.642;21.188;2023-04-24T07:41:38;10.23;;;8.57;;
60665;SDS011;59128;44.642;21.188;2023-04-24T07:44:05;9.88;;;8.88;;
60665;SDS011;59128;44.642;21.188;2023-04-24T07:46:31;11.50;;;9.43;;
60665;SDS011;59128;44.642;21.188;2023-04-24T07:48:57;11.73;;;10.52;;
60665;SDS011;59128;44.642;21.188;2023-04-24T07:51:24;15.98;;;13.55;;
60665;SDS011;59128;44.642;21.188;2023-04-24T07:53:52;11.80;;;9.25;;
60665;SDS011;59128;44.642;21.188;2023-04-24T07:56:20;8.05;;;6.90;;
60665;SDS011;59128;44.642;21.188;2023-04-24T07:58:46;6.82;;;6.22;;
60665;SDS011;59128;44.642;21.188;2023-04-24T08:01:12;7.17;;;6.47;;
60665;SDS011;59128;44.642;21.188;2023-04-24T08:03:38;8.48;;;7.55;;
60665;SDS011;59128;44.642;21.188;2023-04-24T08:06:04;12.88;;;11.48;;
60665;SDS011;59128;44.642;21.188;2023-04-24T08:08:30;20.60;;;16.77;;
60665;SDS011;59128;44.642;21.188;2023-04-24T08:10:56;8.90;;;7.83;;
60665;SDS011;59128;44.642;21.188;2023-04-24T08:13:22;7.32;;;6.60;;
60665;SDS011;59128;44.642;21.188;2023-04-24T08:15:48;8.30;;;6.65;;
60665;SDS011;59128;44.642;21.188;2023-04-24T08:18:14;8.80;;;7.17;;
60665;SDS011;59128;44.642;21.188;2023-04-24T08:20:41;10.40;;;9.20;;
60665;SDS011;59128;44.642;21.188;2023-04-24T08:23:07;7.77;;;6.93;;
60665;SDS011;59128;44.642;21.188;2023-04-24T08:25:33;7.20;;;5.80;;
60665;SDS011;59128;44.642;21.188;2023-04-24T08:28:01;6.80;;;6.20;;
60665;SDS011;59128;44.642;21.188;2023-04-24T08:30:28;7.10;;;6.20;;
60665;SDS011;59128;44.642;21.188;2023-04-24T08:32:54;7.28;;;6.20;;
60665;SDS011;59128;44.642;21.188;2023-04-24T08:35:20;6.75;;;6.05;;
60665;SDS011;59128;44.642;21.188;2023-04-24T08:37:47;7.60;;;6.90;;
60665;SDS011;59128;44.642;21.188;2023-04-24T08:40:14;7.20;;;6.22;;
60665;SDS011;59128;44.642;21.188;2023-04-24T08:42:44;7.10;;;6.40;;
60665;SDS011;59128;44.642;21.188;2023-04-24T08:45:11;7.72;;;6.93;;
60665;SDS011;59128;44.642;21.188;2023-04-24T08:47:41;6.93;;;6.07;;
60665;SDS011;59128;44.642;21.188;2023-04-24T08:50:08;7.88;;;6.50;;
60665;SDS011;59128;44.642;21.188;2023-04-24T08:52:35;7.22;;;6.53;;
60665;SDS011;59128;44.642;21.188;2023-04-24T09:10:53;13.80;;;10.27;;
60665;SDS011;59128;44.642;21.188;2023-04-24T09:13:20;7.75;;;6.53;;
60665;SDS011;59128;44.642;21.188;2023-04-24T09:15:46;6.80;;;6.10;;
60665;SDS011;59128;44.642;21.188;2023-04-24T09:18:12;6.83;;;6.20;;
60665;SDS011;59128;44.642;21.188;2023-04-24T09:20:57;8.77;;;6.63;;
60665;SDS011;59128;44.642;21.188;2023-04-24T09:23:25;6.65;;;6.05;;
60665;SDS011;59128;44.642;21.188;2023-04-24T09:25:53;7.22;;;6.35;;
60665;SDS011;59128;44.642;21.188;2023-04-24T09:28:20;6.95;;;6.28;;
60665;SDS011;59128;44.642;21.188;2023-04-24T09:31:01;6.13;;;5.53;;
60665;SDS011;59128;44.642;21.188;2023-04-24T09:33:27;7.10;;;5.43;;
60665;SDS011;59128;44.642;21.188;2023-04-24T09:35:53;5.70;;;5.20;;
60665;SDS011;59128;44.642;21.188;2023-04-24T09:38:20;5.88;;;5.18;;
60665;SDS011;59128;44.642;21.188;2023-04-24T09:40:58;8.83;;;7.93;;
60665;SDS011;59128;44.642;21.188;2023-04-24T09:43:26;9.75;;;7.40;;
60665;SDS011;59128;44.642;21.188;2023-04-24T09:45:52;8.48;;;7.13;;
60665;SDS011;59128;44.642;21.188;2023-04-24T09:48:29;10.02;;;8.40;;
60665;SDS011;59128;44.642;21.188;2023-04-24T09:50:55;5.22;;;4.72;;
60665;SDS011;59128;44.642;21.188;2023-04-24T09:53:25;7.03;;;5.07;;
60665;SDS011;59128;44.642;21.188;2023-04-24T09:55:51;5.30;;;4.80;;
60665;SDS011;59128;44.642;21.188;2023-04-24T09:58:18;6.40;;;5.38;;
60665;SDS011;59128;44.642;21.188;2023-04-24T10:00:44;5.65;;;4.78;;
60665;SDS011;59128;44.642;21.188;2023-04-24T10:03:11;5.75;;;5.25;;
60665;SDS011;59128;44.642;21.188;2023-04-24T10:05:37;6.35;;;4.75;;
60665;SDS011;59128;44.642;21.188;2023-04-24T10:08:04;7.55;;;5.30;;
60665;SDS011;59128;44.642;21.188;2023-04-24T10:10:31;12.98;;;6.43;;
60665;SDS011;59128;44.642;21.188;2023-04-24T10:12:58;6.57;;;4.97;;
60665;SDS011;59128;44.642;21.188;2023-04-24T10:15:24;6.25;;;4.95;;
60665;SDS011;59128;44.642;21.188;2023-04-24T10:17:51;8.65;;;7.22;;
60665;SDS011;59128;44.642;21.188;2023-04-24T10:20:21;5.68;;;5.05;;
60665;SDS011;59128;44.642;21.188;2023-04-24T10:22:49;8.05;;;5.45;;
60665;SDS011;59128;44.642;21.188;2023-04-24T10:25:19;6.53;;;5.60;;
60665;SDS011;59128;44.642;21.188;2023-04-24T10:27:46;8.05;;;4.88;;
60665;SDS011;59128;44.642;21.188;2023-04-24T10:30:12;5.25;;;4.75;;
60665;SDS011;59128;44.642;21.188;2023-04-24T10:32:38;8.43;;;6.75;;
60665;SDS011;59128;44.642;21.188;2023-04-24T10:35:06;5.60;;;5.00;;
60665;SDS011;59128;44.642;21.188;2023-04-24T10:37:40;7.55;;;5.47;;
60665;SDS011;59128;44.642;21.188;2023-04-24T10:40:08;7.32;;;5.75;;
60665;SDS011;59128;44.642;21.188;2023-04-24T10:42:34;7.45;;;6.10;;
60665;SDS011;59128;44.642;21.188;2023-04-24T10:45:15;5.85;;;5.25;;
60665;SDS011;59128;44.642;21.188;2023-04-24T10:47:43;10.95;;;5.25;;
60665;SDS011;59128;44.642;21.188;2023-04-24T10:50:16;7.28;;;5.43;;
60665;SDS011;59128;44.642;21.188;2023-04-24T10:52:49;12.30;;;5.28;;
60665;SDS011;59128;44.642;21.188;2023-04-24T10:58:03;6.50;;;5.60;;
60665;SDS011;59128;44.642;21.188;2023-04-24T11:00:30;7.25;;;5.07;;
60665;SDS011;59128;44.642;21.188;2023-04-24T11:02:56;6.15;;;5.55;;
60665;SDS011;59128;44.642;21.188;2023-04-24T11:05:23;6.15;;;5.55;;
60665;SDS011;59128;44.642;21.188;2023-04-24T11:08:15;5.72;;;5.22;;
60665;SDS011;59128;44.642;21.188;2023-04-24T11:10:54;5.53;;;5.00;;
60665;SDS011;59128;44.642;21.188;2023-04-24T11:13:21;6.50;;;5.47;;
60665;SDS011;59128;44.642;21.188;2023-04-24T11:18:38;8.52;;;5.63;;
60665;SDS011;59128;44.642;21.188;2023-04-24T11:21:17;6.55;;;5.60;;
60665;SDS011;59128;44.642;21.188;2023-04-24T11:23:44;6.07;;;5.47;;
60665;SDS011;59128;44.642;21.188;2023-04-24T11:26:18;6.95;;;6.30;;
60665;SDS011;59128;44.642;21.188;2023-04-24T11:28:48;7.55;;;6.75;;
60665;SDS011;59128;44.642;21.188;2023-04-24T11:34:05;6.95;;;6.25;;
60665;SDS011;59128;44.642;21.188;2023-04-24T11:36:31;6.80;;;5.97;;
60665;SDS011;59128;44.642;21.188;2023-04-24T11:38:57;8.52;;;5.47;;
60665;SDS011;59128;44.642;21.188;2023-04-24T11:41:23;9.55;;;6.60;;
60665;SDS011;59128;44.642;21.188;2023-04-24T11:43:50;7.05;;;6.35;;
60665;SDS011;59128;44.642;21.188;2023-04-24T11:46:17;7.95;;;6.03;;
60665;SDS011;59128;44.642;21.188;2023-04-24T11:48:46;7.18;;;5.80;;
60665;SDS011;59128;44.642;21.188;2023-04-24T11:51:15;6.00;;;5.50;;
60665;SDS011;59128;44.642;21.188;2023-04-24T11:53:41;6.63;;;5.95;;
60665;SDS011;59128;44.642;21.188;2023-04-24T11:56:08;7.60;;;5.70;;
60665;SDS011;59128;44.642;21.188;2023-04-24T11:58:35;6.32;;;5.75;;
60665;SDS011;59128;44.642;21.188;2023-04-24T12:01:01;7.03;;;6.35;;
60665;SDS011;59128;44.642;21.188;2023-04-24T12:03:27;8.52;;;6.07;;
60665;SDS011;59128;44.642;21.188;2023-04-24T12:06:04;7.25;;;6.30;;
60665;SDS011;59128;44.642;21.188;2023-04-24T12:08:31;7.53;;;6.45;;
60665;SDS011;59128;44.642;21.188;2023-04-24T12:10:57;9.00;;;7.40;;
60665;SDS011;59128;44.642;21.188;2023-04-24T12:13:25;13.57;;;9.25;;
60665;SDS011;59128;44.642;21.188;2023-04-24T12:15:51;14.10;;;9.20;;
60665;SDS011;59128;44.642;21.188;2023-04-24T12:18:17;6.60;;;5.97;;
60665;SDS011;59128;44.642;21.188;2023-04-24T12:20:43;15.98;;;10.50;;
60665;SDS011;59128;44.642;21.188;2023-04-24T12:23:09;7.53;;;6.07;;
60665;SDS011;59128;44.642;21.188;2023-04-24T12:25:35;6.90;;;5.65;;
60665;SDS011;59128;44.642;21.188;2023-04-24T12:30:31;6.60;;;5.88;;
60665;SDS011;59128;44.642;21.188;2023-04-24T12:32:58;9.25;;;7.13;;
60665;SDS011;59128;44.642;21.188;2023-04-24T12:35:26;11.77;;;9.10;;
60665;SDS011;59128;44.642;21.188;2023-04-24T12:37:52;18.00;;;13.77;;
60665;SDS011;59128;44.642;21.188;2023-04-24T12:40:19;9.15;;;7.70;;
60665;SDS011;59128;44.642;21.188;2023-04-24T12:42:49;13.95;;;10.40;;
60665;SDS011;59128;44.642;21.188;2023-04-24T12:45:17;11.82;;;8.65;;
60665;SDS011;59128;44.642;21.188;2023-04-24T12:47:43;9.88;;;7.78;;
60665;SDS011;59128;44.642;21.188;2023-04-24T12:50:10;16.88;;;11.45;;
60665;SDS011;59128;44.642;21.188;2023-04-24T12:52:37;15.15;;;10.50;;
60665;SDS011;59128;44.642;21.188;2023-04-24T12:55:04;17.23;;;12.20;;
60665;SDS011;59128;44.642;21.188;2023-04-24T12:57:33;30.48;;;18.90;;
60665;SDS011;59128;44.642;21.188;2023-04-24T12:59:59;12.60;;;9.40;;
60665;SDS011;59128;44.642;21.188;2023-04-24T13:02:27;8.70;;;7.90;;
60665;SDS011;59128;44.642;21.188;2023-04-24T13:04:54;16.17;;;12.18;;
60665;SDS011;59128;44.642;21.188;2023-04-24T13:07:20;9.82;;;8.82;;
60665;SDS011;59128;44.642;21.188;2023-04-24T13:09:47;7.55;;;6.85;;
60665;SDS011;59128;44.642;21.188;2023-04-24T13:12:13;43.78;;;33.10;;
60665;SDS011;59128;44.642;21.188;2023-04-24T13:14:39;8.70;;;7.80;;
60665;SDS011;59128;44.642;21.188;2023-04-24T13:17:06;21.42;;;16.50;;
60665;SDS011;59128;44.642;21.188;2023-04-24T13:19:36;12.50;;;8.93;;
60665;SDS011;59128;44.642;21.188;2023-04-24T13:22:03;24.50;;;17.98;;
60665;SDS011;59128;44.642;21.188;2023-04-24T13:24:29;38.25;;;26.88;;
60665;SDS011;59128;44.642;21.188;2023-04-24T13:26:56;19.73;;;13.50;;
60665;SDS011;59128;44.642;21.188;2023-04-24T13:29:22;15.07;;;10.45;;
60665;SDS011;59128;44.642;21.188;2023-04-24T13:31:51;15.30;;;11.32;;
60665;SDS011;59128;44.642;21.188;2023-04-24T13:34:19;20.60;;;13.38;;
60665;SDS011;59128;44.642;21.188;2023-04-24T13:36:45;25.45;;;17.80;;
60665;SDS011;59128;44.642;21.188;2023-04-24T13:39:12;25.60;;;18.50;;
60665;SDS011;59128;44.642;21.188;2023-04-24T13:41:38;21.52;;;15.52;;
60665;SDS011;59128;44.642;21.188;2023-04-24T13:44:04;56.83;;;36.67;;
60665;SDS011;59128;44.642;21.188;2023-04-24T13:46:30;51.65;;;33.03;;
60665;SDS011;59128;44.642;21.188;2023-04-24T13:48:58;28.40;;;20.70;;
60665;SDS011;59128;44.642;21.188;2023-04-24T13:51:27;25.92;;;19.33;;
60665;SDS011;59128;44.642;21.188;2023-04-24T13:53:53;26.35;;;17.83;;
60665;SDS011;59128;44.642;21.188;2023-04-24T13:56:20;24.85;;;16.88;;
60665;SDS011;59128;44.642;21.188;2023-04-24T13:58:46;24.45;;;17.17;;
60665;SDS011;59128;44.642;21.188;2023-04-24T14:01:12;30.27;;;22.95;;
60665;SDS011;59128;44.642;21.188;2023-04-24T14:03:38;34.15;;;23.95;;
60665;SDS011;59128;44.642;21.188;2023-04-24T14:06:04;29.33;;;21.15;;
60665;SDS011;59128;44.642;21.188;2023-04-24T14:08:31;20.75;;;15.32;;
60665;SDS011;59128;44.642;21.188;2023-04-24T14:10:57;18.05;;;14.80;;
60665;SDS011;59128;44.642;21.188;2023-04-24T14:13:23;15.15;;;13.48;;
60665;SDS011;59128;44.642;21.188;2023-04-24T14:15:49;18.33;;;13.93;;
60665;SDS011;59128;44.642;21.188;2023-04-24T14:18:16;24.45;;;16.75;;
60665;SDS011;59128;44.642;21.188;2023-04-24T14:20:42;10.27;;;8.75;;
60665;SDS011;59128;44.642;21.188;2023-04-24T14:23:08;12.80;;;8.43;;
60665;SDS011;59128;44.642;21.188;2023-04-24T14:25:34;11.25;;;9.05;;
60665;SDS011;59128;44.642;21.188;2023-04-24T14:28:00;7.28;;;5.63;;
60665;SDS011;59128;44.642;21.188;2023-04-24T14:30:26;21.52;;;12.25;;
60665;SDS011;59128;44.642;21.188;2023-04-24T14:32:52;7.40;;;6.50;;
60665;SDS011;59128;44.642;21.188;2023-04-24T14:35:18;6.82;;;5.88;;
60665;SDS011;59128;44.642;21.188;2023-04-24T14:37:44;10.15;;;9.07;;
60665;SDS011;59128;44.642;21.188;2023-04-24T14:40:10;7.47;;;5.72;;
60665;SDS011;59128;44.642;21.188;2023-04-24T14:42:37;14.25;;;11.68;;
60665;SDS011;59128;44.642;21.188;2023-04-24T14:45:03;13.07;;;10.93;;
60665;SDS011;59128;44.642;21.188;2023-04-24T14:47:29;12.27;;;7.70;;
60665;SDS011;59128;44.642;21.188;2023-04-24T14:49:55;18.08;;;13.80;;